sensor_id;sensor_type;location;lat;lon;timestamp;P1;durP1;ratioP1;P2;durP2;ratioP2
20415;SDS011;10367;52.202;5.996;2023-05-10T00:01:21;19.50;;;16.80;;
20415;SDS011;10367;52.202;5.996;2023-05-10T00:03:53;26.13;;;19.00;;
20415;SDS011;10367;52.202;5.996;2023-05-10T00:06:22;26.50;;;18.57;;
20415;SDS011;10367;52.202;5.996;2023-05-10T00:08:51;21.60;;;17.67;;
20415;SDS011;10367;52.202;5.996;2023-05-10T00:11:23;25.93;;;18.80;;
20415;SDS011;10367;52.202;5.996;2023-05-10T00:13:52;27.20;;;19.43;;
20415;SDS011;10367;52.202;5.996;2023-05-10T00:16:22;30.77;;;19.97;;
20415;SDS011;10367;52.202;5.996;2023-05-10T00:18:53;26.33;;;18.53;;
20415;SDS011;10367;52.202;5.996;2023-05-10T00:21:23;23.60;;;18.33;;
20415;SDS011;10367;52.202;5.996;2023-05-10T00:23:57;31.67;;;21.03;;
20415;SDS011;10367;52.202;5.996;2023-05-10T00:26:27;25.93;;;18.73;;
20415;SDS011;10367;52.202;5.996;2023-05-10T00:28:56;32.07;;;21.53;;
20415;SDS011;10367;52.202;5.996;2023-05-10T00:31:25;36.10;;;21.93;;
20415;SDS011;10367;52.202;5.996;2023-05-10T00:33:54;31.27;;;21.07;;
20415;SDS011;10367;52.202;5.996;2023-05-10T00:36:27;30.83;;;19.90;;
20415;SDS011;10367;52.202;5.996;2023-05-10T00:38:56;34.97;;;22.50;;
20415;SDS011;10367;52.202;5.996;2023-05-10T00:41:25;32.60;;;22.03;;
20415;SDS011;10367;52.202;5.996;2023-05-10T00:43:55;37.70;;;22.93;;
20415;SDS011;10367;52.202;5.996;2023-05-10T00:46:23;39.13;;;22.83;;
20415;SDS011;10367;52.202;5.996;2023-05-10T00:48:53;43.77;;;23.13;;
20415;SDS011;10367;52.202;5.996;2023-05-10T00:51:22;40.93;;;24.17;;
20415;SDS011;10367;52.202;5.996;2023-05-10T00:53:51;47.67;;;25.33;;
20415;SDS011;10367;52.202;5.996;2023-05-10T00:56:20;37.17;;;22.90;;
20415;SDS011;10367;52.202;5.996;2023-05-10T00:58:50;37.47;;;22.60;;
20415;SDS011;10367;52.202;5.996;2023-05-10T01:01:20;39.37;;;23.67;;
20415;SDS011;10367;52.202;5.996;2023-05-10T01:03:49;39.40;;;23.20;;
20415;SDS011;10367;52.202;5.996;2023-05-10T01:06:19;37.67;;;22.40;;
20415;SDS011;10367;52.202;5.996;2023-05-10T01:08:47;35.17;;;22.40;;
20415;SDS011;10367;52.202;5.996;2023-05-10T01:11:16;37.93;;;22.50;;
20415;SDS011;10367;52.202;5.996;2023-05-10T01:13:46;46.60;;;25.20;;
20415;SDS011;10367;52.202;5.996;2023-05-10T01:16:24;38.57;;;23.30;;
20415;SDS011;10367;52.202;5.996;2023-05-10T01:18:55;41.07;;;23.03;;
20415;SDS011;10367;52.202;5.996;2023-05-10T01:21:27;39.00;;;23.20;;
20415;SDS011;10367;52.202;5.996;2023-05-10T01:27:34;42.77;;;23.43;;
20415;SDS011;10367;52.202;5.996;2023-05-10T01:30:35;44.50;;;24.40;;
20415;SDS011;10367;52.202;5.996;2023-05-10T01:33:25;40.00;;;22.67;;
20415;SDS011;10367;52.202;5.996;2023-05-10T01:36:00;38.13;;;23.67;;
20415;SDS011;10367;52.202;5.996;2023-05-10T01:38:40;41.47;;;23.17;;
20415;SDS011;10367;52.202;5.996;2023-05-10T01:41:14;36.73;;;22.30;;
20415;SDS011;10367;52.202;5.996;2023-05-10T01:43:57;42.43;;;24.73;;
20415;SDS011;10367;52.202;5.996;2023-05-10T01:46:38;47.27;;;25.97;;
20415;SDS011;10367;52.202;5.996;2023-05-10T01:49:10;58.30;;;27.23;;
20415;SDS011;10367;52.202;5.996;2023-05-10T01:51:46;47.33;;;23.33;;
20415;SDS011;10367;52.202;5.996;2023-05-10T01:54:21;51.00;;;26.77;;
20415;SDS011;10367;52.202;5.996;2023-05-10T01:56:55;37.27;;;23.80;;
20415;SDS011;10367;52.202;5.996;2023-05-10T01:59:29;47.50;;;24.73;;
20415;SDS011;10367;52.202;5.996;2023-05-10T02:02:03;49.33;;;26.27;;
20415;SDS011;10367;52.202;5.996;2023-05-10T02:04:35;54.77;;;26.10;;
20415;SDS011;10367;52.202;5.996;2023-05-10T02:07:08;50.40;;;25.57;;
20415;SDS011;10367;52.202;5.996;2023-05-10T02:09:43;51.00;;;27.00;;
20415;SDS011;10367;52.202;5.996;2023-05-10T02:12:15;57.33;;;27.07;;
20415;SDS011;10367;52.202;5.996;2023-05-10T02:14:45;54.37;;;26.67;;
20415;SDS011;10367;52.202;5.996;2023-05-10T02:17:15;45.90;;;26.43;;
20415;SDS011;10367;52.202;5.996;2023-05-10T02:19:47;48.47;;;25.20;;
20415;SDS011;10367;52.202;5.996;2023-05-10T02:22:17;51.27;;;25.87;;
20415;SDS011;10367;52.202;5.996;2023-05-10T02:24:47;55.37;;;26.27;;
20415;SDS011;10367;52.202;5.996;2023-05-10T02:27:18;56.00;;;27.07;;
20415;SDS011;10367;52.202;5.996;2023-05-10T02:29:48;56.63;;;27.67;;
20415;SDS011;10367;52.202;5.996;2023-05-10T02:32:22;54.93;;;28.17;;
20415;SDS011;10367;52.202;5.996;2023-05-10T02:34:55;58.53;;;28.00;;
20415;SDS011;10367;52.202;5.996;2023-05-10T02:37:24;56.27;;;25.90;;
20415;SDS011;10367;52.202;5.996;2023-05-10T02:39:55;60.03;;;28.83;;
20415;SDS011;10367;52.202;5.996;2023-05-10T02:42:25;57.30;;;27.80;;
20415;SDS011;10367;52.202;5.996;2023-05-10T02:44:56;66.60;;;30.03;;
20415;SDS011;10367;52.202;5.996;2023-05-10T02:47:28;62.23;;;28.67;;
20415;SDS011;10367;52.202;5.996;2023-05-10T02:49:59;78.20;;;32.67;;
20415;SDS011;10367;52.202;5.996;2023-05-10T02:52:29;65.20;;;31.03;;
20415;SDS011;10367;52.202;5.996;2023-05-10T02:55:04;75.77;;;31.93;;
20415;SDS011;10367;52.202;5.996;2023-05-10T02:57:38;76.70;;;32.70;;
20415;SDS011;10367;52.202;5.996;2023-05-10T03:00:10;75.13;;;33.13;;
20415;SDS011;10367;52.202;5.996;2023-05-10T03:02:41;77.03;;;34.13;;
20415;SDS011;10367;52.202;5.996;2023-05-10T03:05:11;56.27;;;28.20;;
20415;SDS011;10367;52.202;5.996;2023-05-10T03:07:42;64.17;;;29.23;;
20415;SDS011;10367;52.202;5.996;2023-05-10T03:10:11;77.40;;;30.93;;
20415;SDS011;10367;52.202;5.996;2023-05-10T03:12:45;86.00;;;32.93;;
20415;SDS011;10367;52.202;5.996;2023-05-10T03:15:22;78.77;;;32.17;;
20415;SDS011;10367;52.202;5.996;2023-05-10T03:18:01;74.03;;;31.20;;
20415;SDS011;10367;52.202;5.996;2023-05-10T03:20:36;79.70;;;33.47;;
20415;SDS011;10367;52.202;5.996;2023-05-10T03:23:09;75.57;;;34.50;;
20415;SDS011;10367;52.202;5.996;2023-05-10T03:25:46;79.37;;;33.20;;
20415;SDS011;10367;52.202;5.996;2023-05-10T03:28:17;73.33;;;30.77;;
20415;SDS011;10367;52.202;5.996;2023-05-10T03:30:48;64.00;;;32.00;;
20415;SDS011;10367;52.202;5.996;2023-05-10T03:33:18;66.13;;;31.43;;
20415;SDS011;10367;52.202;5.996;2023-05-10T03:35:49;60.03;;;28.33;;
20415;SDS011;10367;52.202;5.996;2023-05-10T03:38:17;69.20;;;31.47;;
20415;SDS011;10367;52.202;5.996;2023-05-10T03:40:50;82.90;;;36.17;;
20415;SDS011;10367;52.202;5.996;2023-05-10T03:43:20;72.73;;;33.10;;
20415;SDS011;10367;52.202;5.996;2023-05-10T03:45:48;72.13;;;34.07;;
20415;SDS011;10367;52.202;5.996;2023-05-10T03:48:17;67.53;;;31.83;;
20415;SDS011;10367;52.202;5.996;2023-05-10T03:50:46;67.10;;;31.20;;
20415;SDS011;10367;52.202;5.996;2023-05-10T03:53:17;74.13;;;33.50;;
20415;SDS011;10367;52.202;5.996;2023-05-10T03:55:46;69.63;;;32.53;;
20415;SDS011;10367;52.202;5.996;2023-05-10T03:58:15;73.83;;;32.40;;
20415;SDS011;10367;52.202;5.996;2023-05-10T04:00:43;74.03;;;34.50;;
20415;SDS011;10367;52.202;5.996;2023-05-10T04:03:12;75.20;;;31.23;;
20415;SDS011;10367;52.202;5.996;2023-05-10T04:05:42;80.50;;;36.13;;
20415;SDS011;10367;52.202;5.996;2023-05-10T04:08:10;60.83;;;29.90;;
20415;SDS011;10367;52.202;5.996;2023-05-10T04:10:40;75.33;;;33.13;;
20415;SDS011;10367;52.202;5.996;2023-05-10T04:13:09;70.50;;;32.73;;
20415;SDS011;10367;52.202;5.996;2023-05-10T04:15:38;73.60;;;31.93;;
20415;SDS011;10367;52.202;5.996;2023-05-10T04:18:06;60.63;;;31.13;;
20415;SDS011;10367;52.202;5.996;2023-05-10T04:20:35;56.23;;;28.60;;
20415;SDS011;10367;52.202;5.996;2023-05-10T04:23:04;71.73;;;33.40;;
20415;SDS011;10367;52.202;5.996;2023-05-10T04:25:33;65.63;;;30.80;;
20415;SDS011;10367;52.202;5.996;2023-05-10T04:28:04;69.47;;;33.10;;
20415;SDS011;10367;52.202;5.996;2023-05-10T04:30:33;62.77;;;30.37;;
20415;SDS011;10367;52.202;5.996;2023-05-10T04:33:02;71.63;;;31.13;;
20415;SDS011;10367;52.202;5.996;2023-05-10T04:35:31;63.10;;;30.67;;
20415;SDS011;10367;52.202;5.996;2023-05-10T04:38:00;69.03;;;30.33;;
20415;SDS011;10367;52.202;5.996;2023-05-10T04:40:29;67.30;;;30.33;;
20415;SDS011;10367;52.202;5.996;2023-05-10T04:42:58;64.80;;;29.20;;
20415;SDS011;10367;52.202;5.996;2023-05-10T04:45:28;67.83;;;30.80;;
20415;SDS011;10367;52.202;5.996;2023-05-10T04:47:57;67.43;;;29.97;;
20415;SDS011;10367;52.202;5.996;2023-05-10T04:50:26;73.70;;;31.27;;
20415;SDS011;10367;52.202;5.996;2023-05-10T04:52:54;65.80;;;30.27;;
20415;SDS011;10367;52.202;5.996;2023-05-10T04:55:23;63.50;;;27.30;;
20415;SDS011;10367;52.202;5.996;2023-05-10T04:57:53;67.23;;;29.67;;
20415;SDS011;10367;52.202;5.996;2023-05-10T05:00:24;71.07;;;30.53;;
20415;SDS011;10367;52.202;5.996;2023-05-10T05:02:54;66.70;;;28.90;;
20415;SDS011;10367;52.202;5.996;2023-05-10T05:05:22;75.10;;;31.73;;
20415;SDS011;10367;52.202;5.996;2023-05-10T05:07:51;71.63;;;30.63;;
20415;SDS011;10367;52.202;5.996;2023-05-10T05:10:23;64.57;;;28.23;;
20415;SDS011;10367;52.202;5.996;2023-05-10T05:12:52;63.87;;;28.60;;
20415;SDS011;10367;52.202;5.996;2023-05-10T05:15:20;70.13;;;29.13;;
20415;SDS011;10367;52.202;5.996;2023-05-10T05:17:52;63.07;;;29.70;;
20415;SDS011;10367;52.202;5.996;2023-05-10T05:20:24;67.00;;;28.57;;
20415;SDS011;10367;52.202;5.996;2023-05-10T05:22:53;73.27;;;28.97;;
20415;SDS011;10367;52.202;5.996;2023-05-10T05:25:22;80.53;;;30.80;;
20415;SDS011;10367;52.202;5.996;2023-05-10T05:27:51;69.67;;;29.53;;
20415;SDS011;10367;52.202;5.996;2023-05-10T05:30:19;80.27;;;30.40;;
20415;SDS011;10367;52.202;5.996;2023-05-10T05:32:48;73.23;;;29.67;;
20415;SDS011;10367;52.202;5.996;2023-05-10T05:35:18;74.83;;;32.83;;
20415;SDS011;10367;52.202;5.996;2023-05-10T05:37:47;68.30;;;28.80;;
20415;SDS011;10367;52.202;5.996;2023-05-10T05:40:16;89.10;;;31.27;;
20415;SDS011;10367;52.202;5.996;2023-05-10T05:42:44;77.23;;;31.00;;
20415;SDS011;10367;52.202;5.996;2023-05-10T05:45:13;71.70;;;28.57;;
20415;SDS011;10367;52.202;5.996;2023-05-10T05:47:43;83.60;;;33.33;;
20415;SDS011;10367;52.202;5.996;2023-05-10T05:50:11;69.83;;;30.67;;
20415;SDS011;10367;52.202;5.996;2023-05-10T05:52:42;74.73;;;29.60;;
20415;SDS011;10367;52.202;5.996;2023-05-10T05:55:10;78.60;;;30.60;;
20415;SDS011;10367;52.202;5.996;2023-05-10T05:57:39;73.87;;;29.73;;
20415;SDS011;10367;52.202;5.996;2023-05-10T06:00:08;77.17;;;31.50;;
20415;SDS011;10367;52.202;5.996;2023-05-10T06:02:37;76.90;;;29.93;;
20415;SDS011;10367;52.202;5.996;2023-05-10T06:05:06;78.37;;;29.60;;
20415;SDS011;10367;52.202;5.996;2023-05-10T06:07:36;79.33;;;31.27;;
20415;SDS011;10367;52.202;5.996;2023-05-10T06:10:07;78.80;;;31.83;;
20415;SDS011;10367;52.202;5.996;2023-05-10T06:12:35;91.47;;;30.93;;
20415;SDS011;10367;52.202;5.996;2023-05-10T06:15:05;73.80;;;32.33;;
20415;SDS011;10367;52.202;5.996;2023-05-10T06:17:34;73.30;;;31.10;;
20415;SDS011;10367;52.202;5.996;2023-05-10T06:20:03;74.87;;;30.93;;
20415;SDS011;10367;52.202;5.996;2023-05-10T06:22:32;74.60;;;29.87;;
20415;SDS011;10367;52.202;5.996;2023-05-10T06:25:01;83.03;;;31.33;;
20415;SDS011;10367;52.202;5.996;2023-05-10T06:27:31;80.43;;;29.53;;
20415;SDS011;10367;52.202;5.996;2023-05-10T06:30:00;66.57;;;28.03;;
20415;SDS011;10367;52.202;5.996;2023-05-10T06:32:40;70.17;;;28.67;;
20415;SDS011;10367;52.202;5.996;2023-05-10T06:35:10;81.20;;;31.07;;
20415;SDS011;10367;52.202;5.996;2023-05-10T06:37:39;62.13;;;28.50;;
20415;SDS011;10367;52.202;5.996;2023-05-10T06:40:08;60.03;;;27.87;;
20415;SDS011;10367;52.202;5.996;2023-05-10T06:42:39;60.37;;;27.93;;
20415;SDS011;10367;52.202;5.996;2023-05-10T06:45:08;57.57;;;28.67;;
20415;SDS011;10367;52.202;5.996;2023-05-10T06:47:37;58.83;;;27.50;;
20415;SDS011;10367;52.202;5.996;2023-05-10T06:50:06;56.83;;;26.70;;
20415;SDS011;10367;52.202;5.996;2023-05-10T06:52:36;65.47;;;29.00;;
20415;SDS011;10367;52.202;5.996;2023-05-10T06:55:05;71.73;;;30.47;;
20415;SDS011;10367;52.202;5.996;2023-05-10T06:57:35;59.37;;;27.13;;
20415;SDS011;10367;52.202;5.996;2023-05-10T07:00:06;63.03;;;27.80;;
20415;SDS011;10367;52.202;5.996;2023-05-10T07:02:36;67.17;;;28.70;;
20415;SDS011;10367;52.202;5.996;2023-05-10T07:05:05;63.33;;;27.10;;
20415;SDS011;10367;52.202;5.996;2023-05-10T07:07:34;74.03;;;28.40;;
20415;SDS011;10367;52.202;5.996;2023-05-10T07:10:03;59.87;;;26.27;;
20415;SDS011;10367;52.202;5.996;2023-05-10T07:12:32;60.57;;;27.70;;
20415;SDS011;10367;52.202;5.996;2023-05-10T07:15:01;65.20;;;31.17;;
20415;SDS011;10367;52.202;5.996;2023-05-10T07:17:31;63.30;;;27.67;;
20415;SDS011;10367;52.202;5.996;2023-05-10T07:20:01;64.03;;;29.13;;
20415;SDS011;10367;52.202;5.996;2023-05-10T07:22:30;64.73;;;28.33;;
20415;SDS011;10367;52.202;5.996;2023-05-10T07:24:59;63.07;;;29.37;;
20415;SDS011;10367;52.202;5.996;2023-05-10T07:27:27;63.33;;;28.47;;
20415;SDS011;10367;52.202;5.996;2023-05-10T07:29:56;60.80;;;27.17;;
20415;SDS011;10367;52.202;5.996;2023-05-10T07:32:25;57.10;;;27.83;;
20415;SDS011;10367;52.202;5.996;2023-05-10T07:34:55;53.97;;;27.67;;
20415;SDS011;10367;52.202;5.996;2023-05-10T07:37:24;53.83;;;26.80;;
20415;SDS011;10367;52.202;5.996;2023-05-10T07:39:53;59.27;;;28.63;;
20415;SDS011;10367;52.202;5.996;2023-05-10T07:42:22;61.90;;;26.43;;
20415;SDS011;10367;52.202;5.996;2023-05-10T07:44:51;54.00;;;27.80;;
20415;SDS011;10367;52.202;5.996;2023-05-10T07:47:20;56.23;;;28.37;;
20415;SDS011;10367;52.202;5.996;2023-05-10T07:49:48;53.37;;;27.07;;
20415;SDS011;10367;52.202;5.996;2023-05-10T07:52:19;53.23;;;27.13;;
20415;SDS011;10367;52.202;5.996;2023-05-10T07:54:48;54.07;;;27.03;;
20415;SDS011;10367;52.202;5.996;2023-05-10T07:57:17;53.47;;;27.63;;
20415;SDS011;10367;52.202;5.996;2023-05-10T07:59:46;61.33;;;29.93;;
20415;SDS011;10367;52.202;5.996;2023-05-10T08:02:14;52.00;;;27.73;;
20415;SDS011;10367;52.202;5.996;2023-05-10T08:04:43;45.93;;;26.30;;
20415;SDS011;10367;52.202;5.996;2023-05-10T08:07:12;51.57;;;29.33;;
20415;SDS011;10367;52.202;5.996;2023-05-10T08:09:42;44.80;;;26.10;;
20415;SDS011;10367;52.202;5.996;2023-05-10T08:12:11;49.10;;;28.77;;
20415;SDS011;10367;52.202;5.996;2023-05-10T08:14:39;42.43;;;25.90;;
20415;SDS011;10367;52.202;5.996;2023-05-10T08:17:08;37.37;;;25.23;;
20415;SDS011;10367;52.202;5.996;2023-05-10T08:19:36;33.13;;;23.80;;
20415;SDS011;10367;52.202;5.996;2023-05-10T08:22:05;37.37;;;25.83;;
20415;SDS011;10367;52.202;5.996;2023-05-10T08:24:34;33.07;;;23.83;;
20415;SDS011;10367;52.202;5.996;2023-05-10T08:27:07;34.90;;;23.60;;
20415;SDS011;10367;52.202;5.996;2023-05-10T08:29:37;35.73;;;25.07;;
20415;SDS011;10367;52.202;5.996;2023-05-10T08:32:16;28.57;;;21.57;;
20415;SDS011;10367;52.202;5.996;2023-05-10T08:34:44;31.00;;;22.87;;
20415;SDS011;10367;52.202;5.996;2023-05-10T08:37:13;31.80;;;22.80;;
20415;SDS011;10367;52.202;5.996;2023-05-10T08:39:42;24.10;;;19.87;;
20415;SDS011;10367;52.202;5.996;2023-05-10T08:42:13;34.90;;;24.47;;
20415;SDS011;10367;52.202;5.996;2023-05-10T08:44:47;22.23;;;19.87;;
20415;SDS011;10367;52.202;5.996;2023-05-10T08:47:16;25.47;;;21.90;;
20415;SDS011;10367;52.202;5.996;2023-05-10T08:49:47;29.30;;;21.20;;
20415;SDS011;10367;52.202;5.996;2023-05-10T08:52:17;31.77;;;22.50;;
20415;SDS011;10367;52.202;5.996;2023-05-10T08:54:47;35.13;;;25.03;;
20415;SDS011;10367;52.202;5.996;2023-05-10T08:57:17;33.23;;;22.97;;
20415;SDS011;10367;52.202;5.996;2023-05-10T08:59:47;29.60;;;20.77;;
20415;SDS011;10367;52.202;5.996;2023-05-10T09:02:16;31.37;;;22.00;;
20415;SDS011;10367;52.202;5.996;2023-05-10T09:04:48;27.37;;;21.37;;
20415;SDS011;10367;52.202;5.996;2023-05-10T09:07:16;37.03;;;24.00;;
20415;SDS011;10367;52.202;5.996;2023-05-10T09:09:46;31.03;;;21.60;;
20415;SDS011;10367;52.202;5.996;2023-05-10T09:12:17;27.90;;;22.33;;
20415;SDS011;10367;52.202;5.996;2023-05-10T09:14:46;37.23;;;23.53;;
20415;SDS011;10367;52.202;5.996;2023-05-10T09:17:15;34.03;;;22.43;;
20415;SDS011;10367;52.202;5.996;2023-05-10T09:19:44;32.67;;;20.87;;
20415;SDS011;10367;52.202;5.996;2023-05-10T09:22:13;29.43;;;21.93;;
20415;SDS011;10367;52.202;5.996;2023-05-10T09:24:42;24.67;;;19.90;;
20415;SDS011;10367;52.202;5.996;2023-05-10T09:27:12;29.93;;;20.90;;
20415;SDS011;10367;52.202;5.996;2023-05-10T09:29:42;29.63;;;21.47;;
20415;SDS011;10367;52.202;5.996;2023-05-10T09:32:11;24.80;;;19.90;;
20415;SDS011;10367;52.202;5.996;2023-05-10T09:34:41;26.70;;;20.27;;
20415;SDS011;10367;52.202;5.996;2023-05-10T09:37:10;24.70;;;20.83;;
20415;SDS011;10367;52.202;5.996;2023-05-10T09:39:38;27.83;;;21.50;;
20415;SDS011;10367;52.202;5.996;2023-05-10T09:42:08;30.43;;;22.10;;
20415;SDS011;10367;52.202;5.996;2023-05-10T09:44:37;30.37;;;21.70;;
20415;SDS011;10367;52.202;5.996;2023-05-10T09:47:09;29.23;;;21.37;;
20415;SDS011;10367;52.202;5.996;2023-05-10T09:49:37;26.53;;;22.03;;
20415;SDS011;10367;52.202;5.996;2023-05-10T09:52:07;22.07;;;19.77;;
20415;SDS011;10367;52.202;5.996;2023-05-10T09:54:35;26.97;;;20.70;;
20415;SDS011;10367;52.202;5.996;2023-05-10T09:57:04;27.93;;;20.97;;
20415;SDS011;10367;52.202;5.996;2023-05-10T09:59:33;25.70;;;20.47;;
20415;SDS011;10367;52.202;5.996;2023-05-10T10:02:03;28.13;;;22.70;;
20415;SDS011;10367;52.202;5.996;2023-05-10T10:04:37;25.63;;;21.03;;
20415;SDS011;10367;52.202;5.996;2023-05-10T10:07:07;31.57;;;23.03;;
20415;SDS011;10367;52.202;5.996;2023-05-10T10:09:36;25.03;;;21.07;;
20415;SDS011;10367;52.202;5.996;2023-05-10T10:12:06;27.70;;;20.83;;
20415;SDS011;10367;52.202;5.996;2023-05-10T10:14:35;26.00;;;20.93;;
20415;SDS011;10367;52.202;5.996;2023-05-10T10:17:04;25.40;;;21.87;;
20415;SDS011;10367;52.202;5.996;2023-05-10T10:19:36;22.47;;;20.10;;
20415;SDS011;10367;52.202;5.996;2023-05-10T10:22:05;23.47;;;21.03;;
20415;SDS011;10367;52.202;5.996;2023-05-10T10:24:33;23.63;;;21.07;;
20415;SDS011;10367;52.202;5.996;2023-05-10T10:27:04;25.00;;;22.27;;
20415;SDS011;10367;52.202;5.996;2023-05-10T10:29:42;23.50;;;20.47;;
20415;SDS011;10367;52.202;5.996;2023-05-10T10:32:19;26.30;;;22.40;;
20415;SDS011;10367;52.202;5.996;2023-05-10T10:34:55;22.07;;;19.77;;
20415;SDS011;10367;52.202;5.996;2023-05-10T10:37:24;22.73;;;20.43;;
20415;SDS011;10367;52.202;5.996;2023-05-10T10:40:23;22.50;;;20.23;;
20415;SDS011;10367;52.202;5.996;2023-05-10T10:42:53;22.23;;;20.10;;
20415;SDS011;10367;52.202;5.996;2023-05-10T10:45:23;25.63;;;22.30;;
20415;SDS011;10367;52.202;5.996;2023-05-10T10:50:57;26.33;;;21.60;;
20415;SDS011;10367;52.202;5.996;2023-05-10T10:53:26;23.87;;;21.40;;
20415;SDS011;10367;52.202;5.996;2023-05-10T10:56:02;23.93;;;21.43;;
20415;SDS011;10367;52.202;5.996;2023-05-10T10:58:36;23.47;;;20.97;;
20415;SDS011;10367;52.202;5.996;2023-05-10T11:01:09;25.57;;;21.53;;
20415;SDS011;10367;52.202;5.996;2023-05-10T11:03:40;22.47;;;20.37;;
20415;SDS011;10367;52.202;5.996;2023-05-10T11:06:10;23.43;;;20.87;;
20415;SDS011;10367;52.202;5.996;2023-05-10T11:08:42;23.50;;;20.43;;
20415;SDS011;10367;52.202;5.996;2023-05-10T11:11:13;22.73;;;20.40;;
20415;SDS011;10367;52.202;5.996;2023-05-10T11:13:43;20.97;;;19.20;;
20415;SDS011;10367;52.202;5.996;2023-05-10T11:16:17;24.90;;;20.50;;
20415;SDS011;10367;52.202;5.996;2023-05-10T11:18:57;22.53;;;20.30;;
20415;SDS011;10367;52.202;5.996;2023-05-10T11:21:30;23.03;;;20.97;;
20415;SDS011;10367;52.202;5.996;2023-05-10T11:24:00;23.57;;;21.37;;
20415;SDS011;10367;52.202;5.996;2023-05-10T11:26:40;22.30;;;20.30;;
20415;SDS011;10367;52.202;5.996;2023-05-10T11:29:10;26.33;;;23.00;;
20415;SDS011;10367;52.202;5.996;2023-05-10T11:31:43;22.53;;;20.40;;
20415;SDS011;10367;52.202;5.996;2023-05-10T11:34:22;24.63;;;22.20;;
20415;SDS011;10367;52.202;5.996;2023-05-10T11:36:56;22.27;;;20.33;;
20415;SDS011;10367;52.202;5.996;2023-05-10T11:39:26;23.63;;;21.40;;
20415;SDS011;10367;52.202;5.996;2023-05-10T11:41:55;23.53;;;21.43;;
20415;SDS011;10367;52.202;5.996;2023-05-10T11:44:28;23.93;;;21.70;;
20415;SDS011;10367;52.202;5.996;2023-05-10T11:46:58;22.53;;;20.67;;
20415;SDS011;10367;52.202;5.996;2023-05-10T11:49:27;23.17;;;21.20;;
20415;SDS011;10367;52.202;5.996;2023-05-10T11:52:04;21.47;;;19.80;;
20415;SDS011;10367;52.202;5.996;2023-05-10T11:54:34;21.80;;;19.90;;
20415;SDS011;10367;52.202;5.996;2023-05-10T11:57:03;21.60;;;19.77;;
20415;SDS011;10367;52.202;5.996;2023-05-10T11:59:31;23.17;;;21.20;;
20415;SDS011;10367;52.202;5.996;2023-05-10T12:02:00;21.07;;;19.47;;
20415;SDS011;10367;52.202;5.996;2023-05-10T12:04:30;22.80;;;21.00;;
20415;SDS011;10367;52.202;5.996;2023-05-10T12:06:59;22.70;;;20.53;;
20415;SDS011;10367;52.202;5.996;2023-05-10T12:09:29;21.40;;;19.73;;
20415;SDS011;10367;52.202;5.996;2023-05-10T12:12:09;21.57;;;19.70;;
20415;SDS011;10367;52.202;5.996;2023-05-10T12:14:38;22.47;;;20.77;;
20415;SDS011;10367;52.202;5.996;2023-05-10T12:17:11;22.20;;;20.57;;
20415;SDS011;10367;52.202;5.996;2023-05-10T12:19:40;22.40;;;20.57;;
20415;SDS011;10367;52.202;5.996;2023-05-10T12:22:10;21.77;;;20.17;;
20415;SDS011;10367;52.202;5.996;2023-05-10T12:24:40;21.37;;;19.67;;
20415;SDS011;10367;52.202;5.996;2023-05-10T12:27:09;22.33;;;20.60;;
20415;SDS011;10367;52.202;5.996;2023-05-10T12:29:41;21.80;;;20.20;;
20415;SDS011;10367;52.202;5.996;2023-05-10T12:32:11;21.87;;;20.17;;
20415;SDS011;10367;52.202;5.996;2023-05-10T12:34:40;23.70;;;21.60;;
20415;SDS011;10367;52.202;5.996;2023-05-10T12:37:08;21.40;;;19.60;;
20415;SDS011;10367;52.202;5.996;2023-05-10T12:39:38;20.67;;;18.87;;
20415;SDS011;10367;52.202;5.996;2023-05-10T12:42:09;21.73;;;20.13;;
20415;SDS011;10367;52.202;5.996;2023-05-10T12:44:38;21.50;;;19.67;;
20415;SDS011;10367;52.202;5.996;2023-05-10T12:47:07;21.33;;;19.67;;
20415;SDS011;10367;52.202;5.996;2023-05-10T12:49:36;21.13;;;19.57;;
20415;SDS011;10367;52.202;5.996;2023-05-10T12:52:04;22.30;;;20.43;;
20415;SDS011;10367;52.202;5.996;2023-05-10T12:54:34;23.50;;;20.30;;
20415;SDS011;10367;52.202;5.996;2023-05-10T12:57:04;21.17;;;19.37;;
20415;SDS011;10367;52.202;5.996;2023-05-10T12:59:34;22.10;;;20.30;;
20415;SDS011;10367;52.202;5.996;2023-05-10T13:02:04;22.17;;;20.27;;
20415;SDS011;10367;52.202;5.996;2023-05-10T13:04:32;23.37;;;21.20;;
20415;SDS011;10367;52.202;5.996;2023-05-10T13:07:01;21.70;;;19.87;;
20415;SDS011;10367;52.202;5.996;2023-05-10T13:09:30;23.37;;;21.33;;
20415;SDS011;10367;52.202;5.996;2023-05-10T13:11:59;22.13;;;20.33;;
20415;SDS011;10367;52.202;5.996;2023-05-10T13:14:29;23.00;;;20.90;;
20415;SDS011;10367;52.202;5.996;2023-05-10T13:16:58;21.87;;;19.97;;
20415;SDS011;10367;52.202;5.996;2023-05-10T13:19:26;22.13;;;20.37;;
20415;SDS011;10367;52.202;5.996;2023-05-10T13:21:55;21.17;;;19.37;;
20415;SDS011;10367;52.202;5.996;2023-05-10T13:24:24;24.33;;;22.03;;
20415;SDS011;10367;52.202;5.996;2023-05-10T13:26:53;20.60;;;18.90;;
20415;SDS011;10367;52.202;5.996;2023-05-10T13:29:21;22.53;;;20.53;;
20415;SDS011;10367;52.202;5.996;2023-05-10T13:31:52;21.17;;;19.47;;
20415;SDS011;10367;52.202;5.996;2023-05-10T13:34:20;22.37;;;20.20;;
20415;SDS011;10367;52.202;5.996;2023-05-10T13:36:49;21.50;;;19.50;;
20415;SDS011;10367;52.202;5.996;2023-05-10T13:39:19;21.97;;;20.10;;
20415;SDS011;10367;52.202;5.996;2023-05-10T13:41:48;20.60;;;18.90;;
20415;SDS011;10367;52.202;5.996;2023-05-10T13:44:20;22.43;;;20.43;;
20415;SDS011;10367;52.202;5.996;2023-05-10T13:46:48;22.20;;;20.30;;
20415;SDS011;10367;52.202;5.996;2023-05-10T13:49:19;23.20;;;21.17;;
20415;SDS011;10367;52.202;5.996;2023-05-10T13:51:48;22.90;;;20.97;;
20415;SDS011;10367;52.202;5.996;2023-05-10T13:54:17;22.73;;;20.77;;
20415;SDS011;10367;52.202;5.996;2023-05-10T13:56:46;22.07;;;20.37;;
20415;SDS011;10367;52.202;5.996;2023-05-10T13:59:15;21.53;;;19.80;;
20415;SDS011;10367;52.202;5.996;2023-05-10T14:01:44;26.73;;;23.83;;
20415;SDS011;10367;52.202;5.996;2023-05-10T14:04:13;22.10;;;20.40;;
20415;SDS011;10367;52.202;5.996;2023-05-10T14:06:43;24.37;;;22.10;;
20415;SDS011;10367;52.202;5.996;2023-05-10T14:09:11;23.30;;;21.10;;
20415;SDS011;10367;52.202;5.996;2023-05-10T14:11:40;22.07;;;20.30;;
20415;SDS011;10367;52.202;5.996;2023-05-10T14:14:10;22.77;;;21.03;;
20415;SDS011;10367;52.202;5.996;2023-05-10T14:16:41;24.37;;;22.07;;
20415;SDS011;10367;52.202;5.996;2023-05-10T14:19:10;24.27;;;22.17;;
20415;SDS011;10367;52.202;5.996;2023-05-10T14:21:39;23.33;;;21.27;;
20415;SDS011;10367;52.202;5.996;2023-05-10T14:24:09;23.80;;;21.57;;
20415;SDS011;10367;52.202;5.996;2023-05-10T14:26:38;23.27;;;21.30;;
20415;SDS011;10367;52.202;5.996;2023-05-10T14:29:07;24.13;;;22.03;;
20415;SDS011;10367;52.202;5.996;2023-05-10T14:31:39;23.17;;;21.17;;
20415;SDS011;10367;52.202;5.996;2023-05-10T14:34:08;21.40;;;19.70;;
20415;SDS011;10367;52.202;5.996;2023-05-10T14:36:37;23.80;;;21.67;;
20415;SDS011;10367;52.202;5.996;2023-05-10T14:39:06;24.20;;;22.10;;
20415;SDS011;10367;52.202;5.996;2023-05-10T14:41:38;23.03;;;21.23;;
20415;SDS011;10367;52.202;5.996;2023-05-10T14:44:09;24.70;;;22.47;;
20415;SDS011;10367;52.202;5.996;2023-05-10T14:46:38;25.87;;;23.47;;